createdAt,value
2023-03-10T00:00:21.516Z,984.52
2023-03-10T00:03:29.286Z,984.45
2023-03-10T00:06:37.029Z,984.30
2023-03-10T00:09:45.037Z,984.26
2023-03-10T00:12:52.736Z,984.21
2023-03-10T00:16:00.317Z,983.99
2023-03-10T00:19:07.983Z,984.01
2023-03-10T00:22:15.807Z,984.06
2023-03-10T00:25:23.445Z,983.90
2023-03-10T00:28:31.100Z,983.85
2023-03-10T00:31:39.006Z,983.79
2023-03-10T00:34:46.108Z,983.70
2023-03-10T00:37:53.677Z,983.71
2023-03-10T00:41:01.306Z,983.67
2023-03-10T00:44:08.826Z,983.57
2023-03-10T00:47:16.165Z,983.56
2023-03-10T00:50:24.227Z,983.61
2023-03-10T00:53:31.371Z,983.43
2023-03-10T00:56:39.181Z,983.30
2023-03-10T00:59:50.706Z,983.13
2023-03-10T01:02:47.260Z,983.30
2023-03-10T01:05:55.092Z,983.12
2023-03-10T01:09:02.921Z,982.97
2023-03-10T01:12:10.098Z,983.11
2023-03-10T01:15:17.869Z,982.96
2023-03-10T01:18:25.526Z,982.85
2023-03-10T01:21:33.047Z,982.77
2023-03-10T01:24:40.669Z,982.68
2023-03-10T01:27:48.229Z,982.64
2023-03-10T01:30:55.897Z,982.59
2023-03-10T01:34:03.460Z,982.57
2023-03-10T01:37:10.931Z,982.46
2023-03-10T01:40:18.683Z,982.45
2023-03-10T01:43:25.782Z,982.27
2023-03-10T01:46:33.749Z,982.16
2023-03-10T01:49:41.288Z,982.11
2023-03-10T01:52:48.383Z,981.98
2023-03-10T01:55:56.228Z,981.91
2023-03-10T01:59:03.445Z,981.85
2023-03-10T02:02:10.602Z,981.75
2023-03-10T02:05:18.500Z,981.66
2023-03-10T02:08:26.048Z,981.58
2023-03-10T02:11:33.669Z,981.59
2023-03-10T02:14:41.611Z,981.68
2023-03-10T02:17:49.026Z,981.53
2023-03-10T02:20:56.577Z,981.31
2023-03-10T02:24:03.896Z,981.31
2023-03-10T02:27:11.616Z,981.14
2023-03-10T02:30:18.993Z,981.08
2023-03-10T02:33:26.387Z,980.90
2023-03-10T02:36:34.427Z,980.90
2023-03-10T02:39:41.850Z,980.86
2023-03-10T02:42:49.240Z,980.84
2023-03-10T02:45:57.111Z,980.74
2023-03-10T02:49:04.324Z,980.71
2023-03-10T02:52:12.054Z,980.62
2023-03-10T02:55:20.136Z,980.57
2023-03-10T02:58:27.156Z,980.48
2023-03-10T03:01:34.828Z,980.51
2023-03-10T03:04:42.695Z,980.49
2023-03-10T03:07:49.882Z,980.34
2023-03-10T03:10:57.606Z,980.28
2023-03-10T03:14:05.631Z,980.23
2023-03-10T03:17:12.688Z,980.15
2023-03-10T03:20:20.469Z,980.15
2023-03-10T03:23:27.865Z,980.13
2023-03-10T03:26:35.301Z,980.01
2023-03-10T03:29:43.158Z,979.86
2023-03-10T03:32:50.628Z,979.83
2023-03-10T03:35:58.116Z,979.72
2023-03-10T03:39:05.848Z,979.71
2023-03-10T03:42:13.344Z,979.60
2023-03-10T03:45:21.861Z,979.54
2023-03-10T03:48:29.204Z,979.53
2023-03-10T03:51:37.310Z,979.44
2023-03-10T03:54:45.280Z,979.34
2023-03-10T03:57:52.689Z,979.31
2023-03-10T04:01:00.754Z,979.26
2023-03-10T04:04:08.598Z,979.24
2023-03-10T04:07:15.957Z,979.29
2023-03-10T04:10:23.774Z,979.23
2023-03-10T04:13:32.116Z,979.22
2023-03-10T04:16:39.389Z,979.15
2023-03-10T04:19:54.173Z,979.16
2023-03-10T04:22:52.351Z,979.06
2023-03-10T04:25:59.992Z,979.10
2023-03-10T04:29:07.755Z,979.08
2023-03-10T04:32:15.277Z,979.06
2023-03-10T04:35:22.875Z,979.14
2023-03-10T04:38:30.684Z,979.09
2023-03-10T04:41:37.884Z,978.99
2023-03-10T04:44:45.669Z,979.24
2023-03-10T04:47:53.409Z,979.30
2023-03-10T04:51:01.445Z,979.16
2023-03-10T04:54:08.902Z,979.23
2023-03-10T04:57:16.649Z,979.25
2023-03-10T05:00:24.468Z,979.24
2023-03-10T05:03:32.191Z,979.32
2023-03-10T05:06:39.765Z,979.16
2023-03-10T05:09:47.875Z,979.14
2023-03-10T05:12:55.323Z,979.25
2023-03-10T05:16:03.087Z,979.16
2023-03-10T05:19:10.725Z,979.07
2023-03-10T05:22:17.986Z,979.11
2023-03-10T05:25:25.853Z,979.05
2023-03-10T05:28:34.024Z,979.12
2023-03-10T05:31:41.261Z,979.02
2023-03-10T05:34:49.651Z,979.05
2023-03-10T05:37:57.790Z,978.98
2023-03-10T05:41:05.061Z,979.07
2023-03-10T05:44:12.981Z,979.06
2023-03-10T05:47:20.479Z,979.01
2023-03-10T05:50:28.141Z,979.03
2023-03-10T05:53:35.971Z,979.16
2023-03-10T05:56:43.437Z,979.12
2023-03-10T05:59:51.068Z,979.08
2023-03-10T06:02:58.587Z,979.13
2023-03-10T06:06:06.239Z,979.14
2023-03-10T06:09:13.868Z,979.20
2023-03-10T06:12:20.991Z,979.16
2023-03-10T06:15:28.830Z,979.27
2023-03-10T06:18:36.415Z,979.20
2023-03-10T06:21:43.830Z,979.32
2023-03-10T06:24:51.627Z,979.37
2023-03-10T06:27:59.119Z,979.40
2023-03-10T06:31:06.505Z,979.41
2023-03-10T06:34:14.384Z,979.41
2023-03-10T06:37:21.533Z,979.48
2023-03-10T06:40:29.427Z,979.58
2023-03-10T06:43:37.215Z,979.62
2023-03-10T06:46:44.411Z,979.67
2023-03-10T06:49:52.472Z,979.60
2023-03-10T06:53:00.260Z,979.59
2023-03-10T06:56:07.949Z,979.67
2023-03-10T06:59:15.280Z,979.70
2023-03-10T07:02:23.009Z,979.84
2023-03-10T07:05:30.360Z,979.82
2023-03-10T07:08:37.589Z,979.99
2023-03-10T07:11:45.009Z,980.02
2023-03-10T07:14:52.468Z,980.12
2023-03-10T07:17:59.942Z,980.08
2023-03-10T07:21:07.118Z,980.04
2023-03-10T07:24:14.901Z,980.23
2023-03-10T07:27:22.539Z,980.24
2023-03-10T07:30:29.986Z,980.17
2023-03-10T07:33:37.791Z,980.25
2023-03-10T07:36:45.221Z,980.25
2023-03-10T07:39:52.831Z,980.34
2023-03-10T07:43:00.895Z,980.34
2023-03-10T07:46:08.090Z,980.35
2023-03-10T07:49:15.866Z,980.37
2023-03-10T07:52:23.696Z,980.51
2023-03-10T07:55:30.847Z,980.52
2023-03-10T07:58:39.395Z,980.53
2023-03-10T08:01:47.246Z,980.57
2023-03-10T08:04:54.393Z,980.60
2023-03-10T08:08:02.088Z,980.62
2023-03-10T08:11:09.540Z,980.54
2023-03-10T08:14:19.140Z,980.56
2023-03-10T08:17:27.591Z,980.73
2023-03-10T08:20:34.706Z,980.73
2023-03-10T08:23:42.227Z,980.79
2023-03-10T08:26:49.734Z,980.94
2023-03-10T08:29:57.437Z,980.93
2023-03-10T08:33:06.032Z,980.89
2023-03-10T08:36:13.593Z,980.95
2023-03-10T08:39:21.268Z,980.85
2023-03-10T08:42:29.148Z,980.81
2023-03-10T08:45:36.170Z,980.89
2023-03-10T08:48:43.810Z,980.96
2023-03-10T08:51:51.691Z,980.99
2023-03-10T08:55:00.067Z,980.92
2023-03-10T08:58:07.936Z,981.00
2023-03-10T09:01:15.362Z,981.12
2023-03-10T09:04:22.761Z,981.03
2023-03-10T09:07:30.520Z,981.02
2023-03-10T09:10:37.876Z,981.05
2023-03-10T09:13:45.653Z,981.12
2023-03-10T09:16:53.485Z,981.05
2023-03-10T09:20:00.902Z,981.19
2023-03-10T09:23:08.307Z,981.10
2023-03-10T09:26:16.118Z,981.12
2023-03-10T09:29:41.791Z,981.14
2023-03-10T09:32:28.452Z,981.07
2023-03-10T09:35:41.617Z,981.08
2023-03-10T09:38:40.830Z,981.24
2023-03-10T09:41:48.370Z,981.28
2023-03-10T09:44:55.757Z,981.29
2023-03-10T09:48:04.803Z,981.19
2023-03-10T09:51:12.075Z,981.14
2023-03-10T09:54:19.724Z,981.18
2023-03-10T09:57:27.192Z,981.22
2023-03-10T10:00:34.255Z,981.21
2023-03-10T10:03:52.275Z,981.19
2023-03-10T10:06:48.514Z,981.27
2023-03-10T10:09:55.594Z,981.25
2023-03-10T10:13:03.110Z,981.32
2023-03-10T10:16:28.124Z,981.26
2023-03-10T10:19:15.294Z,981.26
2023-03-10T10:22:22.725Z,981.40
2023-03-10T10:25:30.111Z,981.46
2023-03-10T10:28:38.055Z,981.41
2023-03-10T10:31:45.134Z,981.50
2023-03-10T10:34:52.612Z,981.50
2023-03-10T10:38:00.649Z,981.37
2023-03-10T10:41:08.248Z,981.46
2023-03-10T10:44:16.198Z,981.43
2023-03-10T10:47:23.580Z,981.47
2023-03-10T10:50:30.941Z,981.36
2023-03-10T10:53:38.863Z,981.36
2023-03-10T10:56:46.025Z,981.42
2023-03-10T10:59:53.376Z,981.33
2023-03-10T11:03:01.317Z,981.47
2023-03-10T11:06:08.736Z,981.53
2023-03-10T11:09:16.703Z,981.44
2023-03-10T11:12:24.307Z,981.39
2023-03-10T11:15:31.740Z,981.40
2023-03-10T11:18:39.233Z,981.43
2023-03-10T11:21:46.288Z,981.43
2023-03-10T11:24:53.975Z,981.37
2023-03-10T11:28:01.344Z,981.37
2023-03-10T11:31:08.716Z,981.38
2023-03-10T11:34:16.130Z,981.37
2023-03-10T11:37:23.095Z,981.32
2023-03-10T11:40:30.746Z,981.26
2023-03-10T11:43:38.644Z,981.32
2023-03-10T11:46:45.580Z,981.28
2023-03-10T11:49:53.265Z,981.18
2023-03-10T11:53:01.180Z,981.22
2023-03-10T11:56:08.235Z,981.18
2023-03-10T11:59:16.117Z,981.28
2023-03-10T12:02:23.454Z,981.37
2023-03-10T12:05:30.903Z,981.26
2023-03-10T12:08:38.394Z,981.18
2023-03-10T12:11:45.646Z,981.07
2023-03-10T12:14:52.944Z,981.00
2023-03-10T12:18:00.248Z,980.97
2023-03-10T12:21:07.629Z,980.95
2023-03-10T12:24:14.858Z,980.90
2023-03-10T12:27:21.819Z,980.87
2023-03-10T12:30:29.567Z,980.79
2023-03-10T12:33:36.960Z,980.77
2023-03-10T12:36:43.978Z,980.90
2023-03-10T12:39:51.550Z,980.88
2023-03-10T12:42:58.990Z,980.91
2023-03-10T12:46:05.998Z,980.98
2023-03-10T12:49:13.488Z,980.90
2023-03-10T12:52:20.918Z,980.84
2023-03-10T12:55:28.239Z,980.84
2023-03-10T12:58:35.630Z,980.92
2023-03-10T13:01:55.156Z,980.92
2023-03-10T13:04:48.164Z,981.00
2023-03-10T13:07:55.451Z,980.88
2023-03-10T13:11:03.083Z,980.75
2023-03-10T13:14:10.658Z,980.86
2023-03-10T13:17:17.657Z,980.87
2023-03-10T13:20:25.651Z,980.96
2023-03-10T13:23:32.628Z,980.96
2023-03-10T13:26:40.274Z,981.02
2023-03-10T13:29:47.542Z,980.92
2023-03-10T13:32:54.900Z,980.80
2023-03-10T13:36:02.801Z,980.95
2023-03-10T13:39:10.093Z,980.97
2023-03-10T13:42:17.059Z,981.04
2023-03-10T13:45:24.674Z,981.08
2023-03-10T13:48:31.991Z,981.03
2023-03-10T13:51:39.481Z,981.04
2023-03-10T13:54:47.076Z,980.93
2023-03-10T13:57:54.336Z,980.91
2023-03-10T14:01:02.005Z,980.99
2023-03-10T14:04:09.294Z,981.16
2023-03-10T14:07:17.279Z,981.09
2023-03-10T14:10:24.884Z,981.02
2023-03-10T14:13:32.236Z,981.03
2023-03-10T14:16:40.022Z,981.03
2023-03-10T14:19:47.089Z,980.97
2023-03-10T14:22:54.764Z,981.06
2023-03-10T14:26:02.475Z,981.12
2023-03-10T14:29:09.501Z,981.09
2023-03-10T14:32:17.413Z,981.09
2023-03-10T14:35:24.774Z,981.11
2023-03-10T14:38:31.907Z,981.05
2023-03-10T14:41:39.550Z,981.02
2023-03-10T14:44:47.437Z,981.05
2023-03-10T14:47:54.755Z,981.05
2023-03-10T14:51:02.526Z,981.02
2023-03-10T14:54:10.215Z,980.97
2023-03-10T14:57:17.247Z,981.08
2023-03-10T15:00:25.379Z,981.07
2023-03-10T15:03:32.368Z,981.11
2023-03-10T15:06:39.933Z,981.11
2023-03-10T15:09:48.502Z,981.02
2023-03-10T15:12:57.051Z,980.93
2023-03-10T15:16:04.517Z,980.97
2023-03-10T15:19:12.304Z,980.91
2023-03-10T15:22:19.635Z,981.04
2023-03-10T15:25:27.030Z,981.09
2023-03-10T15:28:36.248Z,981.13
2023-03-10T15:31:43.455Z,981.03
2023-03-10T15:34:50.928Z,981.16
2023-03-10T15:37:58.157Z,981.09
2023-03-10T15:41:05.582Z,981.06
2023-03-10T15:44:12.922Z,980.90
2023-03-10T15:47:20.638Z,980.73
2023-03-10T15:50:28.157Z,980.81
2023-03-10T15:53:35.513Z,980.88
2023-03-10T15:56:43.435Z,980.67
2023-03-10T15:59:51.104Z,980.83
2023-03-10T16:02:58.462Z,980.90
2023-03-10T16:06:05.901Z,980.80
2023-03-10T16:09:12.932Z,980.83
2023-03-10T16:12:21.042Z,980.72
2023-03-10T16:15:28.841Z,980.65
2023-03-10T16:18:36.807Z,980.63
2023-03-10T16:21:44.282Z,980.54
2023-03-10T16:24:52.003Z,980.47
2023-03-10T16:27:59.110Z,980.52
2023-03-10T16:31:06.828Z,980.64
2023-03-10T16:34:14.158Z,980.65
2023-03-10T16:37:21.522Z,980.62
2023-03-10T16:40:29.320Z,980.58
2023-03-10T16:43:36.503Z,980.53
2023-03-10T16:46:43.878Z,980.48
2023-03-10T16:49:52.770Z,980.45
2023-03-10T16:52:59.948Z,980.38
2023-03-10T16:56:07.642Z,980.43
2023-03-10T16:59:16.996Z,980.47
2023-03-10T17:02:25.791Z,980.42
2023-03-10T17:05:33.194Z,980.43
2023-03-10T17:08:41.127Z,980.46
2023-03-10T17:11:49.277Z,980.42
2023-03-10T17:14:57.319Z,980.31
2023-03-10T17:18:04.574Z,980.33
2023-03-10T17:21:12.326Z,980.28
2023-03-10T17:24:19.589Z,980.25
2023-03-10T17:27:26.989Z,980.21
2023-03-10T17:30:34.858Z,980.26
2023-03-10T17:33:42.588Z,980.32
2023-03-10T17:36:42.484Z,980.26
2023-03-10T17:39:50.251Z,980.39
2023-03-10T17:42:59.879Z,980.20
2023-03-10T17:46:01.072Z,980.28
2023-03-10T17:49:08.537Z,980.26
2023-03-10T17:52:15.674Z,980.29
2023-03-10T17:55:23.527Z,980.21
2023-03-10T17:58:30.726Z,980.35
2023-03-10T18:01:38.372Z,980.31
2023-03-10T18:04:46.479Z,980.34
2023-03-10T18:07:53.994Z,980.39
2023-03-10T18:11:01.969Z,980.12
2023-03-10T18:14:09.664Z,980.03
2023-03-10T18:17:17.788Z,980.05
2023-03-10T18:20:24.962Z,980.00
2023-03-10T18:23:33.139Z,979.92
2023-03-10T18:26:40.946Z,980.15
2023-03-10T18:29:48.572Z,980.11
2023-03-10T18:32:56.245Z,980.09
2023-03-10T18:36:03.783Z,979.97
2023-03-10T18:39:11.344Z,979.74
2023-03-10T18:42:18.832Z,979.73
2023-03-10T18:45:26.472Z,979.82
2023-03-10T18:48:34.553Z,980.06
2023-03-10T18:51:42.935Z,980.10
2023-03-10T18:54:50.647Z,979.92
2023-03-10T18:57:59.051Z,979.98
2023-03-10T19:01:07.012Z,979.89
2023-03-10T19:04:14.643Z,979.89
2023-03-10T19:07:22.319Z,979.92
2023-03-10T19:10:30.026Z,979.84
2023-03-10T19:13:37.646Z,979.91
2023-03-10T19:16:45.207Z,979.97
2023-03-10T19:19:53.232Z,980.11
2023-03-10T19:23:00.444Z,980.28
2023-03-10T19:26:08.245Z,980.34
2023-03-10T19:29:16.355Z,980.34
2023-03-10T19:32:23.602Z,980.29
2023-03-10T19:35:31.368Z,980.35
2023-03-10T19:38:39.201Z,980.38
2023-03-10T19:41:46.392Z,980.38
2023-03-10T19:44:54.352Z,980.36
2023-03-10T19:48:01.968Z,980.31
2023-03-10T19:51:09.778Z,980.34
2023-03-10T19:54:17.353Z,980.23
2023-03-10T19:57:24.976Z,980.14
2023-03-10T20:00:32.421Z,980.10
2023-03-10T20:03:40.217Z,980.14
2023-03-10T20:06:47.654Z,980.33
2023-03-10T20:09:55.329Z,980.59
2023-03-10T20:13:03.031Z,980.70
2023-03-10T20:16:10.200Z,980.69
2023-03-10T20:19:17.537Z,980.76
2023-03-10T20:22:24.876Z,980.81
2023-03-10T20:25:32.410Z,980.87
2023-03-10T20:28:40.102Z,980.90
2023-03-10T20:31:47.347Z,981.04
2023-03-10T20:34:54.937Z,981.21
2023-03-10T20:38:02.768Z,981.36
2023-03-10T20:41:10.186Z,981.50
2023-03-10T20:44:17.654Z,981.72
2023-03-10T20:47:25.223Z,981.84
2023-03-10T20:50:33.206Z,982.00
2023-03-10T20:53:41.042Z,982.13
2023-03-10T20:56:48.618Z,982.29
2023-03-10T20:59:56.543Z,982.45
2023-03-10T21:03:04.105Z,982.58
2023-03-10T21:06:11.928Z,982.80
2023-03-10T21:09:19.856Z,982.97
2023-03-10T21:12:26.928Z,983.11
2023-03-10T21:15:34.758Z,983.24
2023-03-10T21:18:42.694Z,983.47
2023-03-10T21:21:49.967Z,983.59
2023-03-10T21:24:57.765Z,983.74
2023-03-10T21:28:05.742Z,983.77
2023-03-10T21:31:13.009Z,983.90
2023-03-10T21:34:21.020Z,984.02
2023-03-10T21:37:28.483Z,984.25
2023-03-10T21:40:36.110Z,984.31
2023-03-10T21:43:43.975Z,984.41
2023-03-10T21:46:51.386Z,984.35
2023-03-10T21:49:58.887Z,984.57
2023-03-10T21:53:06.759Z,984.66
2023-03-10T21:56:14.188Z,984.83
2023-03-10T21:59:21.758Z,985.02
2023-03-10T22:02:29.339Z,985.11
2023-03-10T22:05:36.772Z,985.25
2023-03-10T22:08:44.437Z,985.36
2023-03-10T22:11:51.710Z,985.48
2023-03-10T22:14:59.795Z,985.67
2023-03-10T22:18:07.247Z,985.79
2023-03-10T22:21:14.428Z,985.87
2023-03-10T22:24:22.314Z,985.98
2023-03-10T22:27:29.733Z,986.04
2023-03-10T22:30:37.419Z,986.15
2023-03-10T22:33:45.407Z,986.31
2023-03-10T22:36:52.625Z,986.32
2023-03-10T22:40:00.216Z,986.35
2023-03-10T22:43:07.940Z,986.48
2023-03-10T22:46:15.219Z,986.60
2023-03-10T22:49:23.010Z,986.76
2023-03-10T22:52:30.856Z,986.85
2023-03-10T22:55:37.988Z,987.13
2023-03-10T22:58:46.090Z,987.16
2023-03-10T23:01:53.750Z,987.30
2023-03-10T23:05:02.112Z,987.40
2023-03-10T23:08:10.335Z,987.53
2023-03-10T23:11:17.884Z,987.62
2023-03-10T23:14:25.511Z,987.70
2023-03-10T23:17:33.786Z,987.84
2023-03-10T23:20:40.806Z,988.03
2023-03-10T23:23:48.317Z,988.12
2023-03-10T23:26:56.326Z,988.16
2023-03-10T23:30:03.424Z,988.31
2023-03-10T23:33:11.249Z,988.41
2023-03-10T23:36:18.793Z,988.68
2023-03-10T23:39:26.291Z,988.79
2023-03-10T23:42:34.152Z,988.94
2023-03-10T23:45:41.640Z,989.04
2023-03-10T23:48:49.128Z,989.16
2023-03-10T23:51:57.060Z,989.23
2023-03-10T23:55:04.666Z,989.32
2023-03-10T23:58:12.366Z,989.50
